sensor_id;sensor_type;location;lat;lon;timestamp;temperature;humidity
77039;DHT22;65970;50.476;4.840;2023-03-23T05:01:32;12.30;98.20
77039;DHT22;65970;50.476;4.840;2023-03-23T05:06:33;12.30;96.50
77039;DHT22;65970;50.476;4.840;2023-03-23T05:11:33;12.30;96.70
77039;DHT22;65970;50.476;4.840;2023-03-23T05:16:35;12.30;96.70
77039;DHT22;65970;50.476;4.840;2023-03-23T05:21:36;12.20;96.50
77039;DHT22;65970;50.476;4.840;2023-03-23T05:26:36;12.20;96.20
77039;DHT22;65970;50.476;4.840;2023-03-23T05:31:37;12.20;95.00
77039;DHT22;65970;50.476;4.840;2023-03-23T05:36:37;12.20;96.00
77039;DHT22;65970;50.476;4.840;2023-03-23T05:41:39;12.20;94.80
77039;DHT22;65970;50.476;4.840;2023-03-23T05:46:39;12.20;94.80
77039;DHT22;65970;50.476;4.840;2023-03-23T05:51:40;12.20;94.00
77039;DHT22;65970;50.476;4.840;2023-03-23T05:56:40;12.20;94.70
77039;DHT22;65970;50.476;4.840;2023-03-23T06:01:41;12.20;94.50
77039;DHT22;65970;50.476;4.840;2023-03-23T06:06:41;12.20;95.40
77039;DHT22;65970;50.476;4.840;2023-03-23T06:11:42;12.20;93.30
77039;DHT22;65970;50.476;4.840;2023-03-23T06:16:43;12.20;93.40
77039;DHT22;65970;50.476;4.840;2023-03-23T06:21:43;12.20;93.80
77039;DHT22;65970;50.476;4.840;2023-03-23T06:26:44;12.20;91.70
77039;DHT22;65970;50.476;4.840;2023-03-23T06:31:47;12.20;90.30
77039;DHT22;65970;50.476;4.840;2023-03-23T06:36:48;12.20;90.60
77039;DHT22;65970;50.476;4.840;2023-03-23T06:41:49;12.20;90.00
77039;DHT22;65970;50.476;4.840;2023-03-23T06:46:49;12.20;89.90
77039;DHT22;65970;50.476;4.840;2023-03-23T06:51:50;12.30;90.10
77039;DHT22;65970;50.476;4.840;2023-03-23T06:56:50;12.30;90.70
77039;DHT22;65970;50.476;4.840;2023-03-23T07:01:51;12.30;90.30
77039;DHT22;65970;50.476;4.840;2023-03-23T07:06:51;12.30;91.30
77039;DHT22;65970;50.476;4.840;2023-03-23T07:11:52;12.30;89.70
77039;DHT22;65970;50.476;4.840;2023-03-23T07:16:52;12.40;89.70
77039;DHT22;65970;50.476;4.840;2023-03-23T07:21:53;12.30;91.20
77039;DHT22;65970;50.476;4.840;2023-03-23T07:26:54;12.30;90.70
77039;DHT22;65970;50.476;4.840;2023-03-23T07:31:55;12.40;95.50
77039;DHT22;65970;50.476;4.840;2023-03-23T07:36:56;12.40;96.80
77039;DHT22;65970;50.476;4.840;2023-03-23T07:41:57;12.40;98.00
77039;DHT22;65970;50.476;4.840;2023-03-23T07:46:57;12.30;99.90
77039;DHT22;65970;50.476;4.840;2023-03-23T07:51:58;12.30;99.90
77039;DHT22;65970;50.476;4.840;2023-03-23T07:56:58;12.20;99.90
77039;DHT22;65970;50.476;4.840;2023-03-23T08:01:59;12.20;99.90
77039;DHT22;65970;50.476;4.840;2023-03-23T08:07:00;12.20;99.90
77039;DHT22;65970;50.476;4.840;2023-03-23T08:12:00;12.10;99.90
77039;DHT22;65970;50.476;4.840;2023-03-23T08:17:01;12.10;99.90
77039;DHT22;65970;50.476;4.840;2023-03-23T08:22:02;12.10;99.90
77039;DHT22;65970;50.476;4.840;2023-03-23T08:27:02;12.20;99.90
77039;DHT22;65970;50.476;4.840;2023-03-23T08:32:03;12.20;99.90
77039;DHT22;65970;50.476;4.840;2023-03-23T08:37:04;12.20;99.90
77039;DHT22;65970;50.476;4.840;2023-03-23T08:42:05;12.20;99.90
77039;DHT22;65970;50.476;4.840;2023-03-23T08:47:05;12.20;99.90
77039;DHT22;65970;50.476;4.840;2023-03-23T08:52:06;12.20;99.90
77039;DHT22;65970;50.476;4.840;2023-03-23T08:57:07;12.10;99.90
77039;DHT22;65970;50.476;4.840;2023-03-23T09:02:10;12.20;99.90
77039;DHT22;65970;50.476;4.840;2023-03-23T09:07:11;12.20;99.90
77039;DHT22;65970;50.476;4.840;2023-03-23T09:12:12;12.20;99.90
77039;DHT22;65970;50.476;4.840;2023-03-23T09:17:12;12.30;99.90
77039;DHT22;65970;50.476;4.840;2023-03-23T09:22:13;12.40;99.90
77039;DHT22;65970;50.476;4.840;2023-03-23T09:27:13;12.40;99.90
77039;DHT22;65970;50.476;4.840;2023-03-23T09:32:14;12.50;99.90
77039;DHT22;65970;50.476;4.840;2023-03-23T09:37:15;12.50;99.90
77039;DHT22;65970;50.476;4.840;2023-03-23T09:42:27;12.50;99.90
77039;DHT22;65970;50.476;4.840;2023-03-23T09:52:56;12.50;99.90
77039;DHT22;65970;50.476;4.840;2023-03-23T10:03:19;12.60;99.90
77039;DHT22;65970;50.476;4.840;2023-03-23T10:08:27;12.60;99.90
77039;DHT22;65970;50.476;4.840;2023-03-23T10:19:40;12.70;99.90
77039;DHT22;65970;50.476;4.840;2023-03-23T10:24:51;12.70;99.90
77039;DHT22;65970;50.476;4.840;2023-03-23T10:30:03;12.80;99.90
77039;DHT22;65970;50.476;4.840;2023-03-23T10:35:16;13.00;99.90
77039;DHT22;65970;50.476;4.840;2023-03-23T10:40:22;13.20;99.90
77039;DHT22;65970;50.476;4.840;2023-03-23T10:45:30;13.40;99.90
77039;DHT22;65970;50.476;4.840;2023-03-23T10:50:34;13.40;99.60
77039;DHT22;65970;50.476;4.840;2023-03-23T10:55:38;13.40;99.90
77039;DHT22;65970;50.476;4.840;2023-03-23T11:00:47;13.40;99.90
77039;DHT22;65970;50.476;4.840;2023-03-23T11:05:51;13.40;99.90
77039;DHT22;65970;50.476;4.840;2023-03-23T11:11:08;13.50;99.90
77039;DHT22;65970;50.476;4.840;2023-03-23T11:16:10;13.50;99.50
77039;DHT22;65970;50.476;4.840;2023-03-23T11:21:12;13.50;99.10
77039;DHT22;65970;50.476;4.840;2023-03-23T11:26:14;13.60;98.30
77039;DHT22;65970;50.476;4.840;2023-03-23T11:31:16;13.60;99.90
77039;DHT22;65970;50.476;4.840;2023-03-23T11:36:18;13.50;99.90
77039;DHT22;65970;50.476;4.840;2023-03-23T11:41:19;13.30;99.90
77039;DHT22;65970;50.476;4.840;2023-03-23T11:47:04;13.20;99.90
77039;DHT22;65970;50.476;4.840;2023-03-23T11:52:11;13.00;99.90
77039;DHT22;65970;50.476;4.840;2023-03-23T11:57:12;12.90;99.90
77039;DHT22;65970;50.476;4.840;2023-03-23T12:07:55;12.80;99.90
77039;DHT22;65970;50.476;4.840;2023-03-23T12:13:18;12.70;99.90
77039;DHT22;65970;50.476;4.840;2023-03-23T12:29:17;12.80;99.90
77039;DHT22;65970;50.476;4.840;2023-03-23T12:34:50;12.90;99.90
77039;DHT22;65970;50.476;4.840;2023-03-23T12:45:20;13.00;99.90
77039;DHT22;65970;50.476;4.840;2023-03-23T12:50:35;13.10;99.90
77039;DHT22;65970;50.476;4.840;2023-03-23T12:56:10;13.00;99.90
77039;DHT22;65970;50.476;4.840;2023-03-23T13:01:14;13.00;99.90
77039;DHT22;65970;50.476;4.840;2023-03-23T13:06:38;13.10;99.90
77039;DHT22;65970;50.476;4.840;2023-03-23T13:11:40;13.40;99.90
77039;DHT22;65970;50.476;4.840;2023-03-23T13:22:06;13.60;99.90
77039;DHT22;65970;50.476;4.840;2023-03-23T13:27:09;13.60;99.90
77039;DHT22;65970;50.476;4.840;2023-03-23T13:32:17;13.70;99.90
77039;DHT22;65970;50.476;4.840;2023-03-23T13:37:23;13.90;99.90
77039;DHT22;65970;50.476;4.840;2023-03-23T13:42:29;14.00;99.90
77039;DHT22;65970;50.476;4.840;2023-03-23T13:47:40;14.10;94.20
77039;DHT22;65970;50.476;4.840;2023-03-23T14:23:35;14.50;78.80
77039;DHT22;65970;50.476;4.840;2023-03-23T14:28:41;14.50;74.50
77039;DHT22;65970;50.476;4.840;2023-03-23T14:33:42;14.40;74.00
77039;DHT22;65970;50.476;4.840;2023-03-23T14:38:43;14.40;72.70
77039;DHT22;65970;50.476;4.840;2023-03-23T14:43:44;14.30;74.50
77039;DHT22;65970;50.476;4.840;2023-03-23T14:48:45;14.30;74.50
77039;DHT22;65970;50.476;4.840;2023-03-23T14:53:46;14.30;74.00
77039;DHT22;65970;50.476;4.840;2023-03-23T14:58:50;14.30;73.90
77039;DHT22;65970;50.476;4.840;2023-03-23T15:03:52;14.40;77.20
77039;DHT22;65970;50.476;4.840;2023-03-23T15:08:55;14.40;72.80
77039;DHT22;65970;50.476;4.840;2023-03-23T15:13:59;14.50;73.30
77039;DHT22;65970;50.476;4.840;2023-03-23T15:19:44;14.50;74.40
77039;DHT22;65970;50.476;4.840;2023-03-23T15:24:39;14.60;72.60
77039;DHT22;65970;50.476;4.840;2023-03-23T15:29:52;14.70;71.90
77039;DHT22;65970;50.476;4.840;2023-03-23T15:34:53;14.70;72.00
77039;DHT22;65970;50.476;4.840;2023-03-23T15:39:55;14.70;70.90
77039;DHT22;65970;50.476;4.840;2023-03-23T15:45:15;14.70;70.10
77039;DHT22;65970;50.476;4.840;2023-03-23T15:50:32;14.70;68.20
77039;DHT22;65970;50.476;4.840;2023-03-23T15:55:37;14.70;69.70
77039;DHT22;65970;50.476;4.840;2023-03-23T16:00:39;14.60;69.90
77039;DHT22;65970;50.476;4.840;2023-03-23T16:05:40;14.60;69.90
77039;DHT22;65970;50.476;4.840;2023-03-23T16:10:41;14.60;71.40
77039;DHT22;65970;50.476;4.840;2023-03-23T16:15:41;14.50;69.90
77039;DHT22;65970;50.476;4.840;2023-03-23T16:20:42;14.50;70.40
77039;DHT22;65970;50.476;4.840;2023-03-23T16:25:43;14.50;70.50
77039;DHT22;65970;50.476;4.840;2023-03-23T16:30:43;14.50;67.60
77039;DHT22;65970;50.476;4.840;2023-03-23T16:35:44;14.50;69.70
77039;DHT22;65970;50.476;4.840;2023-03-23T16:40:45;14.50;68.50
77039;DHT22;65970;50.476;4.840;2023-03-23T16:45:46;14.50;67.90
77039;DHT22;65970;50.476;4.840;2023-03-23T16:50:47;14.50;69.10
77039;DHT22;65970;50.476;4.840;2023-03-23T16:55:50;14.50;69.70
77039;DHT22;65970;50.476;4.840;2023-03-23T17:00:51;14.50;69.70
77039;DHT22;65970;50.476;4.840;2023-03-23T17:05:52;14.50;69.90
77039;DHT22;65970;50.476;4.840;2023-03-23T17:10:52;14.50;68.50
77039;DHT22;65970;50.476;4.840;2023-03-23T17:15:54;14.50;69.00
77039;DHT22;65970;50.476;4.840;2023-03-23T17:20:55;14.40;68.80
77039;DHT22;65970;50.476;4.840;2023-03-23T17:25:55;14.40;68.40
77039;DHT22;65970;50.476;4.840;2023-03-23T17:30:56;14.40;68.50
77039;DHT22;65970;50.476;4.840;2023-03-23T17:35:56;14.30;68.70
77039;DHT22;65970;50.476;4.840;2023-03-23T17:41:01;14.40;68.80
77039;DHT22;65970;50.476;4.840;2023-03-23T17:46:01;14.30;68.90
77039;DHT22;65970;50.476;4.840;2023-03-23T17:51:02;14.30;68.90
77039;DHT22;65970;50.476;4.840;2023-03-23T17:56:04;14.30;67.70
77039;DHT22;65970;50.476;4.840;2023-03-23T18:01:05;14.20;68.80
77039;DHT22;65970;50.476;4.840;2023-03-23T18:06:07;14.20;69.80
77039;DHT22;65970;50.476;4.840;2023-03-23T18:11:08;14.20;70.20
77039;DHT22;65970;50.476;4.840;2023-03-23T18:16:08;14.20;70.50
77039;DHT22;65970;50.476;4.840;2023-03-23T18:21:09;14.20;70.80
77039;DHT22;65970;50.476;4.840;2023-03-23T18:26:11;14.20;71.30
77039;DHT22;65970;50.476;4.840;2023-03-23T18:31:15;14.20;72.20
77039;DHT22;65970;50.476;4.840;2023-03-23T18:36:18;14.10;73.00
77039;DHT22;65970;50.476;4.840;2023-03-23T18:41:19;14.10;73.60
77039;DHT22;65970;50.476;4.840;2023-03-23T18:46:19;14.00;74.80
77039;DHT22;65970;50.476;4.840;2023-03-23T18:51:20;14.10;75.30
77039;DHT22;65970;50.476;4.840;2023-03-23T18:56:21;14.00;74.90
77039;DHT22;65970;50.476;4.840;2023-03-23T19:01:21;14.00;75.50
77039;DHT22;65970;50.476;4.840;2023-03-23T19:06:24;14.00;75.00
77039;DHT22;65970;50.476;4.840;2023-03-23T19:11:25;14.00;74.40
77039;DHT22;65970;50.476;4.840;2023-03-23T19:16:26;14.00;74.50
77039;DHT22;65970;50.476;4.840;2023-03-23T19:21:27;14.00;73.50
77039;DHT22;65970;50.476;4.840;2023-03-23T19:26:33;14.00;73.30
77039;DHT22;65970;50.476;4.840;2023-03-23T19:31:34;14.00;73.30
77039;DHT22;65970;50.476;4.840;2023-03-23T19:36:35;14.00;75.80
77039;DHT22;65970;50.476;4.840;2023-03-23T19:41:36;13.90;77.60
77039;DHT22;65970;50.476;4.840;2023-03-23T19:46:36;13.80;77.90
77039;DHT22;65970;50.476;4.840;2023-03-23T19:51:37;13.70;80.40
77039;DHT22;65970;50.476;4.840;2023-03-23T19:56:37;13.60;81.00
77039;DHT22;65970;50.476;4.840;2023-03-23T20:01:38;13.50;80.20
77039;DHT22;65970;50.476;4.840;2023-03-23T20:06:39;13.50;81.90
77039;DHT22;65970;50.476;4.840;2023-03-23T20:11:39;13.40;79.00
77039;DHT22;65970;50.476;4.840;2023-03-23T20:16:40;13.40;80.30
77039;DHT22;65970;50.476;4.840;2023-03-23T20:21:41;13.30;77.40
77039;DHT22;65970;50.476;4.840;2023-03-23T20:26:42;13.30;77.50
77039;DHT22;65970;50.476;4.840;2023-03-23T20:31:42;13.30;81.20
77039;DHT22;65970;50.476;4.840;2023-03-23T20:36:44;13.20;81.80
77039;DHT22;65970;50.476;4.840;2023-03-23T20:41:45;13.10;84.30
77039;DHT22;65970;50.476;4.840;2023-03-23T20:46:48;13.10;89.70
77039;DHT22;65970;50.476;4.840;2023-03-23T20:51:49;13.00;92.40
77039;DHT22;65970;50.476;4.840;2023-03-23T20:56:50;13.00;93.60
77039;DHT22;65970;50.476;4.840;2023-03-23T21:01:51;12.90;97.10
77039;DHT22;65970;50.476;4.840;2023-03-23T21:06:52;12.90;99.90
77039;DHT22;65970;50.476;4.840;2023-03-23T21:11:53;12.80;99.90
77039;DHT22;65970;50.476;4.840;2023-03-23T21:16:54;12.70;99.90
77039;DHT22;65970;50.476;4.840;2023-03-23T21:21:55;12.70;99.90
77039;DHT22;65970;50.476;4.840;2023-03-23T21:26:58;12.60;99.90
77039;DHT22;65970;50.476;4.840;2023-03-23T21:31:59;12.60;99.90
77039;DHT22;65970;50.476;4.840;2023-03-23T21:36:59;12.50;99.90
77039;DHT22;65970;50.476;4.840;2023-03-23T21:42:00;12.50;99.90
77039;DHT22;65970;50.476;4.840;2023-03-23T21:47:00;12.50;99.90
77039;DHT22;65970;50.476;4.840;2023-03-23T21:52:02;12.40;99.90
77039;DHT22;65970;50.476;4.840;2023-03-23T21:57:03;12.40;99.90
77039;DHT22;65970;50.476;4.840;2023-03-23T22:02:03;12.40;99.90
77039;DHT22;65970;50.476;4.840;2023-03-23T22:07:04;12.30;99.90
77039;DHT22;65970;50.476;4.840;2023-03-23T22:12:05;12.30;99.90
77039;DHT22;65970;50.476;4.840;2023-03-23T22:17:06;12.30;99.90
77039;DHT22;65970;50.476;4.840;2023-03-23T22:22:07;12.40;99.90
77039;DHT22;65970;50.476;4.840;2023-03-23T22:27:07;12.40;99.90
77039;DHT22;65970;50.476;4.840;2023-03-23T22:32:08;12.40;99.90
77039;DHT22;65970;50.476;4.840;2023-03-23T22:37:09;12.40;99.90
77039;DHT22;65970;50.476;4.840;2023-03-23T22:42:09;12.50;99.90
77039;DHT22;65970;50.476;4.840;2023-03-23T22:47:10;12.50;99.90
77039;DHT22;65970;50.476;4.840;2023-03-23T22:52:11;12.60;99.90
77039;DHT22;65970;50.476;4.840;2023-03-23T22:57:11;12.60;99.90
77039;DHT22;65970;50.476;4.840;2023-03-23T23:02:12;12.60;99.90
77039;DHT22;65970;50.476;4.840;2023-03-23T23:07:12;12.60;99.90
77039;DHT22;65970;50.476;4.840;2023-03-23T23:12:13;12.60;99.90
77039;DHT22;65970;50.476;4.840;2023-03-23T23:17:13;12.70;99.90
77039;DHT22;65970;50.476;4.840;2023-03-23T23:22:14;12.70;99.90
77039;DHT22;65970;50.476;4.840;2023-03-23T23:27:14;12.70;99.90
77039;DHT22;65970;50.476;4.840;2023-03-23T23:32:15;12.60;99.90
77039;DHT22;65970;50.476;4.840;2023-03-23T23:37:16;12.60;99.90
77039;DHT22;65970;50.476;4.840;2023-03-23T23:42:16;12.60;99.90
77039;DHT22;65970;50.476;4.840;2023-03-23T23:47:17;12.60;99.90
77039;DHT22;65970;50.476;4.840;2023-03-23T23:52:18;12.50;99.90
77039;DHT22;65970;50.476;4.840;2023-03-23T23:57:18;12.50;99.90
